Time;durP1;ratioP1;P1;durP2;ratioP2;P2;SDS_P1;SDS_P2;PMS_P1;PMS_P2;Temp;Humidity;BMP_temperature;BMP_pressure;BME280_temperature;BME280_humidity;BME280_pressure;Samples;Min_cycle;Max_cycle;Signal;HPM_P1;HPM_P2
2024/04/18 00:01:08;;;;;;;16.70;8.10;;;;;;;2.58;90.62;99877.84;52522;1258;1098256;-87
2024/04/18 00:03:54;;;;;;;15.50;8.00;;;;;;;2.57;90.17;99874.45;52447;1259;1098663;-86
2024/04/18 00:06:40;;;;;;;13.20;7.80;;;;;;;2.55;90.53;99874.61;52475;1258;1100655;-86
2024/04/18 00:09:35;;;;;;;15.10;8.40;;;;;;;2.54;90.34;99878.98;52329;1257;1099200;-86
2024/04/18 00:12:22;;;;;;;13.10;8.10;;;;;;;2.52;90.19;99880.75;52310;1258;1098405;-88
2024/04/18 00:15:08;;;;;;;16.40;8.00;;;;;;;2.50;90.03;99880.23;52360;1258;1098908;-86
2024/04/18 00:17:54;;;;;;;14.90;9.50;;;;;;;2.49;90.04;99882.96;52490;1258;1098381;-87
2024/04/18 00:20:44;;;;;;;15.20;8.60;;;;;;;2.46;89.82;99885.91;52351;1258;1099812;-89
2024/04/18 00:23:39;;;;;;;12.60;8.00;;;;;;;2.44;89.86;99890.41;52154;1257;1283983;-88
2024/04/18 00:26:30;;;;;;;15.90;8.90;;;;;;;2.42;90.05;99890.96;52485;1261;1098722;-88
2024/04/18 00:29:22;;;;;;;12.00;7.30;;;;;;;2.40;90.44;99893.98;52364;1258;1099181;-88
2024/04/18 00:32:09;;;;;;;11.30;8.10;;;;;;;2.39;90.65;99893.02;52256;1258;1098539;-87
2024/04/18 00:34:56;;;;;;;12.70;8.40;;;;;;;2.38;90.51;99898.39;52361;1258;1099366;-89
2024/04/18 00:37:54;;;;;;;12.30;8.30;;;;;;;2.35;90.50;99898.41;52460;1261;1099070;-87
2024/04/18 00:40:59;;;;;;;12.00;7.90;;;;;;;2.32;90.40;99904.09;52466;1257;1099260;-88
2024/04/18 00:43:45;;;;;;;13.10;8.50;;;;;;;2.28;90.32;99898.61;52429;1258;1098614;-87
2024/04/18 00:46:51;;;;;;;17.90;8.20;;;;;;;2.27;90.41;99897.50;52413;1257;1098615;-88
2024/04/18 00:49:50;;;;;;;14.70;7.80;;;;;;;2.24;90.34;99892.00;52478;1259;1098233;-87
2024/04/18 00:52:36;;;;;;;14.60;7.90;;;;;;;2.21;90.23;99894.97;52379;1258;1098607;-88
2024/04/18 00:55:23;;;;;;;15.50;8.50;;;;;;;2.17;90.19;99895.04;52335;1257;1098725;-88
2024/04/18 00:58:29;;;;;;;14.20;7.70;;;;;;;2.14;90.17;99899.69;52302;1258;1098873;-87
2024/04/18 01:01:35;;;;;;;14.90;7.90;;;;;;;2.08;90.18;99895.88;52504;1258;1098440;-88
2024/04/18 01:04:22;;;;;;;12.30;7.20;;;;;;;2.03;89.80;99896.18;52398;1257;1098901;-89
2024/04/18 01:07:28;;;;;;;13.60;7.10;;;;;;;1.97;89.91;99898.23;52374;1261;1098971;-88
2024/04/18 01:10:14;;;;;;;13.00;7.10;;;;;;;1.92;89.86;99900.27;52472;1258;1098700;-90
2024/04/18 01:13:01;;;;;;;12.60;7.10;;;;;;;1.88;89.81;99899.79;52544;1258;1098896;-89
2024/04/18 01:16:06;;;;;;;13.50;7.10;;;;;;;1.88;89.87;99903.90;52395;1258;1098366;-89
2024/04/18 01:18:52;;;;;;;12.10;6.90;;;;;;;1.85;89.90;99899.05;52396;1259;1099587;-88
2024/04/18 01:21:39;;;;;;;11.00;6.80;;;;;;;1.81;89.92;99900.46;52398;1257;1098983;-89
2024/04/18 01:24:25;;;;;;;14.00;8.90;;;;;;;1.79;89.72;99898.98;52525;1258;1098833;-89
2024/04/18 01:27:12;;;;;;;11.80;7.50;;;;;;;1.76;89.63;99902.55;52348;1262;1098872;-88
2024/04/18 01:30:01;;;;;;;12.40;8.00;;;;;;;1.74;89.65;99902.00;52479;1258;1098987;-89
2024/04/18 01:32:56;;;;;;;11.80;6.90;;;;;;;1.74;89.95;99901.89;52549;1257;1100445;-88
2024/04/18 01:35:42;;;;;;;11.90;7.50;;;;;;;1.73;90.17;99900.20;52385;1265;1098536;-88
2024/04/18 01:38:38;;;;;;;10.50;7.20;;;;;;;1.72;90.10;99900.17;52605;1258;1100311;-88
2024/04/18 01:41:45;;;;;;;11.10;7.10;;;;;;;1.68;89.87;99896.83;52500;1261;1098796;-88
2024/04/18 01:44:52;;;;;;;11.90;7.60;;;;;;;1.64;89.78;99900.36;52527;1257;1099372;-88
2024/04/18 01:47:57;;;;;;;13.20;7.90;;;;;;;1.61;89.95;99902.80;52474;1262;1098443;-89
2024/04/18 01:51:02;;;;;;;11.40;7.00;;;;;;;1.58;90.29;99905.13;52534;1259;1098841;-88
2024/04/18 01:53:51;;;;;;;10.20;6.90;;;;;;;1.57;90.42;99902.45;52439;1258;1098912;-88
2024/04/18 01:56:38;;;;;;;10.90;6.80;;;;;;;1.58;90.97;99909.41;52465;1264;1098325;-87
2024/04/18 01:59:43;;;;;;;9.70;6.20;;;;;;;1.60;91.47;99911.71;52462;1258;1098676;-87
2024/04/18 02:02:29;;;;;;;12.40;7.60;;;;;;;1.61;91.33;99913.20;52309;1258;1099061;-89
2024/04/18 02:05:28;;;;;;;15.40;8.50;;;;;;;1.62;91.44;99916.40;52357;1261;1098497;-89
2024/04/18 02:08:32;;;;;;;13.40;7.20;;;;;;;1.59;90.85;99924.09;52494;1271;1100316;-89
2024/04/18 02:11:40;;;;;;;12.80;7.40;;;;;;;1.53;90.59;99925.46;52368;1266;1098763;-89
2024/04/18 02:14:30;;;;;;;11.50;7.00;;;;;;;1.48;90.46;99930.45;52319;1265;1098604;-88
2024/04/18 02:17:16;;;;;;;11.60;7.00;;;;;;;1.46;90.76;99932.23;52554;1258;1099883;-89
2024/04/18 02:20:21;;;;;;;11.60;7.40;;;;;;;1.43;90.76;99927.27;52418;1264;1098862;-88
2024/04/18 02:23:08;;;;;;;12.60;7.10;;;;;;;1.40;90.88;99928.90;52339;1263;1098956;-91
2024/04/18 02:26:09;;;;;;;9.30;7.20;;;;;;;1.39;90.90;99927.96;52471;1258;1099680;-91
2024/04/18 02:28:56;;;;;;;11.10;6.30;;;;;;;1.38;91.01;99933.31;52361;1264;1099320;-90
2024/04/18 02:31:46;;;;;;;10.70;6.80;;;;;;;1.38;91.30;99932.06;52519;1259;1098611;-90
2024/04/18 02:34:49;;;;;;;14.10;7.20;;;;;;;1.38;91.34;99930.15;52420;1265;1099217;-86
2024/04/18 02:37:44;;;;;;;13.10;7.30;;;;;;;1.38;91.64;99931.92;52348;1264;1098833;-87
2024/04/18 02:40:31;;;;;;;12.80;7.30;;;;;;;1.38;91.91;99935.20;52433;1265;1098230;-89
2024/04/18 02:43:21;;;;;;;13.50;7.40;;;;;;;1.38;91.74;99933.88;52419;1264;1099055;-88
2024/04/18 02:46:07;;;;;;;12.20;7.10;;;;;;;1.39;92.03;99931.84;52322;1258;1099391;-90
2024/04/18 02:48:53;;;;;;;12.00;7.10;;;;;;;1.38;92.13;99937.70;52459;1262;1097957;-89
2024/04/18 02:51:45;;;;;;;12.50;7.00;;;;;;;1.37;92.42;99934.46;52257;1261;1099834;-88
2024/04/18 02:54:32;;;;;;;14.40;7.20;;;;;;;1.38;92.68;99935.13;52377;1259;1098474;-90
2024/04/18 02:57:18;;;;;;;13.70;7.70;;;;;;;1.38;92.38;99935.29;52420;1263;1099062;-88
2024/04/18 03:00:07;;;;;;;14.60;7.60;;;;;;;1.38;92.41;99931.77;52573;1258;1098880;-88
2024/04/18 03:02:53;;;;;;;13.60;8.20;;;;;;;1.36;92.30;99935.65;52423;1258;1099148;-89
2024/04/18 03:05:39;;;;;;;13.70;7.10;;;;;;;1.35;91.92;99932.58;52420;1258;1098901;-89
2024/04/18 03:08:25;;;;;;;14.80;7.80;;;;;;;1.32;91.92;99938.33;52469;1268;1098387;-88
2024/04/18 03:11:11;;;;;;;12.00;7.30;;;;;;;1.30;91.90;99934.14;52424;1258;1098703;-89
2024/04/18 03:13:57;;;;;;;12.70;7.20;;;;;;;1.28;91.73;99933.05;52492;1264;1099070;-90
2024/04/18 03:16:50;;;;;;;13.20;6.80;;;;;;;1.27;91.76;99931.38;52462;1259;1099625;-88
2024/04/18 03:19:37;;;;;;;13.10;7.00;;;;;;;1.26;91.56;99934.83;52328;1259;1098809;-90
2024/04/18 03:22:42;;;;;;;9.90;6.60;;;;;;;1.23;91.61;99935.77;52266;1265;1099646;-88
2024/04/18 03:25:28;;;;;;;11.30;6.50;;;;;;;1.22;91.70;99936.23;52444;1264;1098131;-88
2024/04/18 03:28:24;;;;;;;15.90;7.80;;;;;;;1.21;91.79;99935.09;52335;1261;1098229;-89
2024/04/18 03:31:10;;;;;;;11.80;6.40;;;;;;;1.19;91.93;99934.29;52588;1258;1099186;-89
2024/04/18 03:33:57;;;;;;;13.00;6.90;;;;;;;1.18;91.83;99935.41;52449;1267;1100384;-88
2024/04/18 03:36:52;;;;;;;14.10;6.80;;;;;;;1.18;92.19;99933.32;52554;1258;1100939;-88
2024/04/18 03:39:48;;;;;;;12.10;6.60;;;;;;;1.20;92.29;99937.17;52374;1258;1099648;-89
2024/04/18 03:42:34;;;;;;;8.80;6.70;;;;;;;1.20;92.41;99939.79;52407;1259;1098978;-88
2024/04/18 03:45:23;;;;;;;13.40;7.90;;;;;;;1.20;92.67;99942.06;52368;1266;1099380;-89
2024/04/18 03:48:09;;;;;;;14.90;8.10;;;;;;;1.19;92.92;99946.52;52469;1264;1098818;-89
2024/04/18 03:51:04;;;;;;;16.10;7.30;;;;;;;1.21;92.98;99953.42;52300;1259;1099329;-88
2024/04/18 03:54:09;;;;;;;12.20;6.70;;;;;;;1.21;93.13;99956.95;52448;1261;1098273;-88
2024/04/18 03:57:11;;;;;;;13.30;7.50;;;;;;;1.23;93.47;99961.73;52364;1258;1099264;-89
2024/04/18 04:00:15;;;;;;;11.20;7.30;;;;;;;1.24;93.83;99963.30;52404;1267;1099207;-89
2024/04/18 04:03:02;;;;;;;12.60;6.70;;;;;;;1.26;93.93;99965.83;52507;1258;1098172;-89
2024/04/18 04:05:48;;;;;;;12.00;7.10;;;;;;;1.25;94.03;99964.27;52549;1258;1098988;-89
2024/04/18 04:08:34;;;;;;;12.60;7.00;;;;;;;1.25;94.02;99959.75;52521;1265;1099679;-88
2024/04/18 04:11:30;;;;;;;12.20;7.10;;;;;;;1.25;94.12;99958.10;52415;1262;1099935;-88
2024/04/18 04:14:16;;;;;;;10.10;7.00;;;;;;;1.27;94.31;99961.52;52395;1258;1099271;-89
2024/04/18 04:17:15;;;;;;;10.90;7.20;;;;;;;1.27;94.66;99955.65;52502;1262;1099459;-88
2024/04/18 04:20:01;;;;;;;12.80;7.20;;;;;;;1.28;95.13;99960.71;52574;1256;1098466;-88
2024/04/18 04:22:47;;;;;;;12.60;6.90;;;;;;;1.28;95.23;99955.89;52472;1256;1098863;-88
2024/04/18 04:25:42;;;;;;;11.80;6.90;;;;;;;1.27;95.56;99953.87;52427;1263;1098525;-88
2024/04/18 04:28:29;;;;;;;11.70;6.90;;;;;;;1.27;95.72;99960.63;52512;1265;1099163;-89
2024/04/18 04:31:17;;;;;;;12.20;7.00;;;;;;;1.27;95.92;99962.34;52447;1258;1098275;-88
2024/04/18 04:34:07;;;;;;;11.90;6.80;;;;;;;1.31;96.02;99967.02;52468;1258;1099592;-88
2024/04/18 04:36:53;;;;;;;13.60;7.90;;;;;;;1.35;96.25;99970.55;52423;1262;1099424;-88
2024/04/18 04:39:40;;;;;;;13.10;7.90;;;;;;;1.38;96.64;99973.39;52329;1260;1099062;-89
2024/04/18 04:42:38;;;;;;;15.20;8.10;;;;;;;1.41;97.20;99973.13;52497;1263;1098817;-87
2024/04/18 04:45:25;;;;;;;11.60;7.30;;;;;;;1.43;97.55;99974.02;52505;1256;1098551;-89
2024/04/18 04:48:24;;;;;;;14.40;8.30;;;;;;;1.45;97.97;99973.77;52405;1256;1099553;-89
2024/04/18 04:51:29;;;;;;;11.80;6.70;;;;;;;1.48;98.27;99977.36;52485;1263;1099233;-88
2024/04/18 04:54:22;;;;;;;11.50;6.70;;;;;;;1.52;98.85;99979.45;52378;1258;1099017;-89
2024/04/18 04:57:09;;;;;;;11.60;7.30;;;;;;;1.55;99.11;99980.30;52623;1256;1099716;-87
2024/04/18 04:59:55;;;;;;;11.90;7.10;;;;;;;1.59;99.41;99983.94;52613;1259;1098168;-89
2024/04/18 05:02:41;;;;;;;17.40;8.10;;;;;;;1.63;99.61;99983.73;52536;1257;1098637;-89
2024/04/18 05:05:42;;;;;;;13.10;7.70;;;;;;;1.69;99.84;99988.61;52311;1259;1098952;-88
2024/04/18 05:08:29;;;;;;;15.20;7.10;;;;;;;1.74;100.00;99988.82;52485;1262;1100226;-89
2024/04/18 05:11:18;;;;;;;11.30;7.10;;;;;;;1.79;100.00;99994.27;52270;1270;1098932;-90
2024/04/18 05:14:04;;;;;;;11.00;7.30;;;;;;;1.85;100.00;99998.83;52243;1264;1098232;-90
2024/04/18 05:17:09;;;;;;;14.90;8.00;;;;;;;1.89;100.00;100003.05;52359;1264;1098603;-88
2024/04/18 05:19:57;;;;;;;15.90;7.80;;;;;;;1.96;100.00;100003.81;52265;1261;1099554;-89
2024/04/18 05:22:55;;;;;;;14.70;7.90;;;;;;;2.05;100.00;100000.48;52412;1261;1099766;-89
2024/04/18 05:25:42;;;;;;;15.50;8.90;;;;;;;2.12;100.00;99999.37;52421;1264;1099398;-89
2024/04/18 05:28:41;;;;;;;14.20;9.40;;;;;;;2.17;100.00;100001.76;52402;1258;1099638;-88
2024/04/18 05:31:28;;;;;;;17.00;10.10;;;;;;;2.18;100.00;99999.47;52443;1258;1099162;-91
2024/04/18 05:34:14;;;;;;;14.90;9.00;;;;;;;2.19;100.00;99999.38;52537;1262;1098464;-88
2024/04/18 05:37:01;;;;;;;16.60;10.00;;;;;;;2.21;100.00;99993.78;52472;1258;1099337;-91
2024/04/18 05:39:49;;;;;;;17.10;9.70;;;;;;;2.20;100.00;100001.38;52546;1258;1099050;-89
2024/04/18 05:42:36;;;;;;;15.40;9.10;;;;;;;2.22;100.00;100011.45;52494;1260;1098497;-88
2024/04/18 05:45:28;;;;;;;17.50;9.50;;;;;;;2.24;100.00;100014.06;52435;1261;1098620;-89
2024/04/18 05:48:21;;;;;;;14.70;9.70;;;;;;;2.29;100.00;100014.85;52384;1263;1098925;-89
2024/04/18 05:51:07;;;;;;;16.30;7.80;;;;;;;2.30;100.00;100015.42;52470;1261;1098731;-89
2024/04/18 05:54:11;;;;;;;16.60;9.60;;;;;;;2.31;100.00;100019.88;52370;1264;1098471;-88
2024/04/18 05:57:18;;;;;;;14.90;8.90;;;;;;;2.32;100.00;100020.33;52569;1264;1099447;-89
2024/04/18 06:00:32;;;;;;;15.10;8.30;;;;;;;2.36;100.00;100021.16;52501;1263;1098920;-89
2024/04/18 06:03:24;;;;;;;16.00;10.30;;;;;;;2.39;100.00;100021.25;52501;1267;1099467;-88
2024/04/18 06:06:10;;;;;;;16.60;9.00;;;;;;;2.44;100.00;100017.23;52406;1258;1099675;-90
2024/04/18 06:09:06;;;;;;;20.40;10.20;;;;;;;2.50;100.00;100022.11;52377;1265;1098876;-88
2024/04/18 06:11:52;;;;;;;13.70;9.20;;;;;;;2.50;100.00;100023.02;52881;1265;1098213;-89
2024/04/18 06:14:40;;;;;;;14.40;9.20;;;;;;;2.47;100.00;100022.73;52839;1265;1098854;-82
2024/04/18 06:17:28;;;;;;;17.60;9.00;;;;;;;2.49;100.00;100022.17;52774;1259;1098930;-80
2024/04/18 06:20:14;;;;;;;12.00;8.10;;;;;;;2.53;100.00;100024.77;52650;1261;1099205;-80
2024/04/18 06:23:00;;;;;;;12.10;8.10;;;;;;;2.58;100.00;100024.70;52755;1259;1099042;-82
2024/04/18 06:25:47;;;;;;;11.90;7.80;;;;;;;2.64;100.00;100023.38;52697;1260;1098473;-81
2024/04/18 06:28:33;;;;;;;11.70;7.70;;;;;;;2.65;100.00;100029.92;52219;1259;1098258;-82
2024/04/18 06:31:19;;;;;;;11.40;8.20;;;;;;;2.70;100.00;100031.52;52334;1263;1098263;-82
2024/04/18 06:34:05;;;;;;;12.80;8.10;;;;;;;2.77;100.00;100026.27;52012;1260;1099829;-80
2024/04/18 06:36:51;;;;;;;13.20;8.30;;;;;;;2.83;100.00;100030.61;52342;1262;1098515;-80
2024/04/18 06:39:37;;;;;;;11.50;7.70;;;;;;;2.92;100.00;100026.55;52259;1261;1099318;-82
2024/04/18 06:42:24;;;;;;;13.60;8.80;;;;;;;3.02;100.00;100032.01;52257;1263;1098805;-83
2024/04/18 06:45:09;;;;;;;13.70;8.30;;;;;;;3.09;100.00;100033.77;52147;1263;1098706;-82
2024/04/18 06:47:55;;;;;;;12.40;8.00;;;;;;;3.16;100.00;100040.06;52085;1264;1099379;-83
2024/04/18 06:50:42;;;;;;;11.50;7.70;;;;;;;3.21;100.00;100047.30;52221;1261;1098537;-83
2024/04/18 06:53:28;;;;;;;11.70;7.60;;;;;;;3.26;100.00;100048.92;52263;1258;1099417;-83
2024/04/18 06:56:14;;;;;;;16.00;8.30;;;;;;;3.31;100.00;100047.09;52311;1260;1099663;-82
2024/04/18 06:58:59;;;;;;;11.00;7.90;;;;;;;3.38;100.00;100045.85;52345;1266;1098813;-80
2024/04/18 07:02:00;;;;;;;12.80;8.10;;;;;;;3.51;100.00;100054.81;52405;1263;1100027;-81
2024/04/18 07:04:46;;;;;;;13.30;8.10;;;;;;;3.60;100.00;100051.02;52414;1266;1099190;-81
2024/04/18 07:07:32;;;;;;;15.70;9.20;;;;;;;3.66;100.00;100052.29;52372;1258;1098561;-81
2024/04/18 07:10:17;;;;;;;13.80;8.20;;;;;;;3.77;100.00;100049.56;52553;1261;1099860;-80
2024/04/18 07:13:12;;;;;;;14.80;8.90;;;;;;;3.92;100.00;100048.98;52378;1257;1098479;-81
2024/04/18 07:16:13;;;;;;;;;;;;;;;4.04;100.00;100055.61;52573;1258;1099048;-80
2024/04/18 07:19:12;;;;;;;10.40;7.30;;;;;;;4.13;100.00;100055.92;52492;1260;1098891;-81
2024/04/18 07:22:12;;;;;;;9.80;6.30;;;;;;;4.26;100.00;100051.02;52414;1257;1098678;-81
2024/04/18 07:25:13;;;;;;;;;;;;;;;4.42;100.00;100051.98;52468;1265;1098622;-80
2024/04/18 07:27:59;;;;;;;8.10;6.00;;;;;;;4.55;100.00;100052.13;52331;1261;1098715;-80
2024/04/18 07:30:46;;;;;;;8.50;5.80;;;;;;;4.70;100.00;100056.61;52312;1258;1099199;-81
2024/04/18 07:33:33;;;;;;;11.80;7.60;;;;;;;4.78;100.00;100057.39;52535;1264;1098181;-81
2024/04/18 07:36:34;;;;;;;7.10;5.30;;;;;;;4.79;100.00;100058.98;52236;1260;1099528;-80
2024/04/18 07:39:26;;;;;;;7.80;5.60;;;;;;;4.82;100.00;100061.38;52067;1261;1100088;-81
2024/04/18 07:42:12;;;;;;;7.30;5.50;;;;;;;4.84;100.00;100066.11;52291;1265;1099697;-81
2024/04/18 07:44:58;;;;;;;7.10;4.70;;;;;;;4.82;100.00;100064.30;52311;1261;1098405;-82
2024/04/18 07:47:45;;;;;;;6.20;4.80;;;;;;;4.83;100.00;100061.08;52308;1267;1099193;-82
2024/04/18 07:50:30;;;;;;;6.50;4.70;;;;;;;4.95;100.00;100056.48;52348;1258;1098788;-81
2024/04/18 07:53:16;;;;;;;6.90;5.10;;;;;;;5.16;100.00;100052.48;52334;1261;1099826;-82
2024/04/18 07:56:04;;;;;;;8.10;4.90;;;;;;;5.36;100.00;100057.54;52510;1257;1099417;-82
2024/04/18 07:58:49;;;;;;;6.60;4.40;;;;;;;5.44;100.00;100059.27;52559;1261;1099557;-80
2024/04/18 08:01:35;;;;;;;5.10;4.00;;;;;;;5.46;100.00;100059.39;52297;1258;1099543;-81
2024/04/18 08:04:20;;;;;;;6.80;4.40;;;;;;;5.52;100.00;100058.91;52268;1259;1098930;-81
2024/04/18 08:07:06;;;;;;;4.80;3.70;;;;;;;5.63;100.00;100064.91;52382;1264;1098432;-81
2024/04/18 08:09:52;;;;;;;5.10;4.10;;;;;;;5.74;100.00;100061.16;52478;1261;1099763;-81
2024/04/18 08:12:38;;;;;;;6.00;3.80;;;;;;;5.82;100.00;100068.73;52554;1261;1098131;-82
2024/04/18 08:15:24;;;;;;;6.00;4.30;;;;;;;5.89;100.00;100061.80;52482;1262;1099440;-82
2024/04/18 08:18:10;;;;;;;6.10;4.20;;;;;;;5.94;100.00;100066.52;52279;1261;1099923;-81
2024/04/18 08:20:56;;;;;;;4.40;3.60;;;;;;;5.99;100.00;100060.42;52348;1259;1099036;-82
2024/04/18 08:23:50;;;;;;;6.40;4.30;;;;;;;6.05;99.70;100063.73;52547;1260;1098705;-82
2024/04/18 08:26:36;;;;;;;5.00;3.70;;;;;;;6.07;98.77;100065.29;52340;1264;1100351;-83
2024/04/18 08:29:22;;;;;;;3.90;2.80;;;;;;;6.06;98.37;100066.92;52491;1261;1099747;-82
2024/04/18 08:32:08;;;;;;;4.20;2.70;;;;;;;6.10;97.99;100067.17;52253;1258;1098372;-80
2024/04/18 08:34:54;;;;;;;2.70;2.50;;;;;;;6.25;97.83;100064.09;52340;1260;1098433;-80
2024/04/18 08:37:41;;;;;;;3.50;2.70;;;;;;;6.47;97.81;100065.34;52345;1257;1098469;-83
2024/04/18 08:40:27;;;;;;;3.60;2.80;;;;;;;6.59;96.07;100064.58;52037;1263;1098887;-84
2024/04/18 08:43:12;;;;;;;3.10;2.30;;;;;;;6.69;95.96;100060.06;52263;1257;1099733;-81
2024/04/18 08:45:58;;;;;;;4.10;2.70;;;;;;;6.77;95.03;100064.31;52024;1263;1098367;-85
2024/04/18 08:48:46;;;;;;;3.20;2.50;;;;;;;6.77;94.05;100064.99;52273;1263;1099851;-85
2024/04/18 08:51:35;;;;;;;5.20;3.30;;;;;;;6.81;94.31;100066.14;51983;1264;1099015;-83
2024/04/18 08:54:21;;;;;;;4.00;3.10;;;;;;;6.87;93.80;100060.50;52281;1263;1098399;-83
2024/04/18 08:57:10;;;;;;;3.20;2.60;;;;;;;6.91;93.53;100062.70;52203;1260;1099178;-83
2024/04/18 09:00:01;;;;;;;3.10;2.60;;;;;;;6.95;92.79;100060.94;52302;1261;1099456;-86
2024/04/18 09:02:48;;;;;;;2.80;2.40;;;;;;;6.96;91.73;100061.60;52324;1263;1099118;-86
2024/04/18 09:05:34;;;;;;;3.20;2.30;;;;;;;6.94;91.59;100061.23;52388;1266;1099704;-86
2024/04/18 09:08:20;;;;;;;3.70;2.60;;;;;;;6.95;91.38;100061.51;52275;1259;1099436;-86
2024/04/18 09:11:07;;;;;;;3.00;2.40;;;;;;;6.93;90.52;100055.98;52341;1263;1098276;-85
2024/04/18 09:13:52;;;;;;;2.40;2.20;;;;;;;6.94;90.50;100054.90;52210;1258;1098855;-86
2024/04/18 09:16:39;;;;;;;3.10;2.30;;;;;;;6.94;90.03;100053.45;52214;1263;1099521;-87
2024/04/18 09:19:25;;;;;;;3.20;2.40;;;;;;;6.89;89.50;100059.51;52114;1264;1098920;-87
2024/04/18 09:22:11;;;;;;;4.00;3.20;;;;;;;6.83;89.48;100058.09;52064;1260;1099874;-87
2024/04/18 09:24:58;;;;;;;4.00;3.30;;;;;;;6.83;90.61;100062.14;52109;1267;1099262;-86
2024/04/18 09:27:46;;;;;;;3.00;2.60;;;;;;;6.88;90.64;100060.55;52346;1264;1098730;-86
2024/04/18 09:30:36;;;;;;;3.70;3.00;;;;;;;6.93;90.20;100059.36;52341;1260;1098413;-86
2024/04/18 09:33:23;;;;;;;3.30;2.80;;;;;;;7.05;90.25;100051.15;52029;1260;1098467;-85
2024/04/18 09:36:12;;;;;;;5.10;3.20;;;;;;;7.12;90.13;100051.56;52181;1260;1099151;-85
2024/04/18 09:39:01;;;;;;;3.50;3.10;;;;;;;7.16;89.61;100048.84;52169;1260;1099120;-86
2024/04/18 09:41:53;;;;;;;3.50;3.10;;;;;;;7.16;89.05;100043.09;52258;1257;1099439;-86
2024/04/18 09:44:43;;;;;;;2.80;2.50;;;;;;;7.14;88.05;100042.60;52283;1261;1099704;-85
2024/04/18 09:47:32;;;;;;;4.20;2.90;;;;;;;7.12;88.19;100044.08;52260;1264;1098704;-87
2024/04/18 09:50:18;;;;;;;4.60;3.30;;;;;;;7.11;87.85;100040.48;52032;1260;1099815;-86
2024/04/18 09:53:06;;;;;;;4.20;3.10;;;;;;;7.13;88.24;100044.15;52107;1263;1099067;-86
2024/04/18 09:55:54;;;;;;;4.80;3.60;;;;;;;7.18;88.47;100044.46;52282;1258;1106867;-87
2024/04/18 09:58:40;;;;;;;6.60;4.10;;;;;;;7.16;87.82;100042.52;52276;1263;1098896;-86
2024/04/18 10:01:28;;;;;;;6.20;4.10;;;;;;;7.14;87.95;100040.98;52288;1257;1099266;-86
2024/04/18 10:04:14;;;;;;;7.10;4.40;;;;;;;7.14;88.09;100040.83;52123;1260;1098576;-86
2024/04/18 10:07:01;;;;;;;5.90;4.20;;;;;;;7.19;88.63;100046.62;52260;1257;1099132;-86
2024/04/18 10:09:48;;;;;;;4.80;3.60;;;;;;;7.29;88.47;100045.48;52115;1257;1098794;-86
2024/04/18 10:12:34;;;;;;;5.30;4.60;;;;;;;7.36;87.89;100046.70;52198;1263;1099294;-87
2024/04/18 10:15:20;;;;;;;5.00;4.20;;;;;;;7.35;87.49;100050.21;52239;1257;1099389;-86
2024/04/18 10:18:19;;;;;;;6.40;4.40;;;;;;;7.26;87.83;100050.29;52099;1257;1099767;-86
2024/04/18 10:21:12;;;;;;;5.70;3.70;;;;;;;7.08;88.61;100044.73;52115;1265;1098956;-87
2024/04/18 10:24:04;;;;;;;5.60;4.70;;;;;;;7.00;89.65;100039.20;52064;1258;1099682;-87
2024/04/18 10:27:14;;;;;;;7.70;5.10;;;;;;;6.98;90.15;100036.16;52268;1274;1099402;-85
2024/04/18 10:30:01;;;;;;;6.10;4.00;;;;;;;6.90;89.88;100052.52;52313;1261;1099382;-87
2024/04/18 10:32:48;;;;;;;3.40;2.70;;;;;;;6.77;90.37;100059.73;51982;1271;1098535;-86
2024/04/18 10:35:34;;;;;;;12.50;3.40;;;;;;;6.69;90.59;100055.61;52223;1263;1098304;-87
2024/04/18 10:38:28;;;;;;;3.60;2.90;;;;;;;6.69;91.09;100057.27;52072;1258;1098913;-86
2024/04/18 10:41:22;;;;;;;4.90;3.40;;;;;;;6.71;91.66;100059.29;52257;1258;1099277;-86
2024/04/18 10:44:08;;;;;;;5.70;3.90;;;;;;;6.79;92.82;100050.80;52395;1257;1100099;-86
2024/04/18 10:46:54;;;;;;;6.00;3.60;;;;;;;6.89;93.19;100052.73;52268;1258;1099802;-86
2024/04/18 10:49:40;;;;;;;5.20;4.20;;;;;;;6.97;93.40;100049.90;52294;1257;1098835;-86
2024/04/18 10:52:27;;;;;;;7.40;4.60;;;;;;;7.06;94.06;100044.46;52276;1257;1099754;-84
2024/04/18 10:55:13;;;;;;;5.60;4.00;;;;;;;7.20;94.80;100045.96;52152;1258;1099098;-80
2024/04/18 10:57:58;;;;;;;6.10;4.40;;;;;;;7.32;94.54;100051.15;52314;1258;1098402;-80
2024/04/18 11:00:44;;;;;;;6.80;4.40;;;;;;;7.44;95.29;100052.90;52166;1262;1099286;-81
2024/04/18 11:03:30;;;;;;;3.90;3.30;;;;;;;7.63;95.40;100054.36;52169;1260;1098614;-81
2024/04/18 11:06:16;;;;;;;5.20;3.30;;;;;;;7.71;93.93;100045.59;52200;1258;1098464;-81
2024/04/18 11:09:02;;;;;;;4.60;3.70;;;;;;;7.74;92.40;100052.33;52207;1258;1098879;-79
2024/04/18 11:11:49;;;;;;;3.50;3.00;;;;;;;7.77;91.94;100057.25;52016;1257;1098985;-78
2024/04/18 11:14:36;;;;;;;4.60;3.60;;;;;;;7.75;90.73;100054.98;52414;1257;1098956;-80
2024/04/18 11:17:22;;;;;;;4.50;3.60;;;;;;;7.69;90.86;100060.94;52253;1261;1099662;-79
2024/04/18 11:20:11;;;;;;;5.10;3.40;;;;;;;7.66;90.49;100055.61;51804;1261;1099050;-78
2024/04/18 11:22:57;;;;;;;4.00;3.10;;;;;;;7.65;91.11;100052.02;51881;1256;1099147;-81
2024/04/18 11:25:44;;;;;;;5.50;3.70;;;;;;;7.65;90.51;100053.93;52193;1260;1098598;-80
2024/04/18 11:28:29;;;;;;;4.70;3.80;;;;;;;7.61;91.00;100049.98;52477;1257;1098904;-80
2024/04/18 11:31:15;;;;;;;5.00;3.90;;;;;;;7.62;91.14;100048.65;52193;1258;1099033;-84
2024/04/18 11:34:01;;;;;;;5.70;4.00;;;;;;;7.69;91.88;100054.38;51751;1262;1099624;-82
2024/04/18 11:36:54;;;;;;;7.90;4.30;;;;;;;7.74;91.85;100053.89;51957;1257;1098927;-80
2024/04/18 11:39:41;;;;;;;6.30;3.90;;;;;;;7.70;91.69;100049.23;52090;1257;1099541;-84
2024/04/18 11:42:27;;;;;;;5.00;4.30;;;;;;;7.65;91.71;100054.48;52155;1257;1098098;-84
2024/04/18 11:45:13;;;;;;;4.00;3.30;;;;;;;7.57;91.84;100053.25;52331;1256;1098695;-83
2024/04/18 11:48:00;;;;;;;8.10;3.10;;;;;;;7.41;91.09;100050.44;52103;1261;1099705;-82
2024/04/18 11:50:47;;;;;;;3.90;3.20;;;;;;;7.30;91.54;100054.19;52306;1257;1098840;-80
2024/04/18 11:53:33;;;;;;;4.10;3.10;;;;;;;7.25;91.87;100056.89;52298;1260;1098251;-82
2024/04/18 11:56:18;;;;;;;4.40;3.30;;;;;;;7.18;91.38;100064.70;52111;1256;1099400;-82
2024/04/18 11:59:04;;;;;;;6.10;4.10;;;;;;;7.09;91.02;100055.86;52350;1257;1098964;-80
2024/04/18 12:01:53;;;;;;;5.00;3.40;;;;;;;7.05;91.60;100060.83;52134;1257;1099277;-85
2024/04/18 12:04:39;;;;;;;3.70;3.00;;;;;;;7.11;92.12;100055.77;52050;1256;1098139;-82
2024/04/18 12:07:34;;;;;;;5.80;3.50;;;;;;;7.17;92.38;100055.80;52361;1256;1098368;-86
2024/04/18 12:10:20;;;;;;;5.20;3.80;;;;;;;7.21;92.48;100056.31;52496;1256;1099270;-82
2024/04/18 12:13:21;;;;;;;5.20;3.10;;;;;;;7.26;92.88;100051.89;52303;1256;1099015;-81
2024/04/18 12:16:12;;;;;;;6.10;3.80;;;;;;;7.32;93.26;100052.94;52334;1260;1098942;-81
2024/04/18 12:18:58;;;;;;;5.40;4.60;;;;;;;7.34;93.28;100053.69;52272;1257;1099765;-82
2024/04/18 12:21:45;;;;;;;5.50;3.70;;;;;;;7.35;93.40;100047.42;51949;1257;1099147;-83
2024/04/18 12:24:30;;;;;;;4.40;3.00;;;;;;;7.34;92.49;100054.29;52248;1257;1098870;-83
2024/04/18 12:27:27;;;;;;;3.10;2.60;;;;;;;7.26;91.03;100053.96;52140;1260;1098584;-86
2024/04/18 12:30:13;;;;;;;2.30;1.80;;;;;;;7.23;90.22;100057.71;52252;1258;1098563;-81
2024/04/18 12:32:59;;;;;;;4.10;2.00;;;;;;;7.20;89.59;100061.23;52002;1259;1099867;-84
2024/04/18 12:35:47;;;;;;;4.70;2.60;;;;;;;7.20;89.05;100061.06;52237;1258;1098757;-79
2024/04/18 12:38:32;;;;;;;3.40;2.40;;;;;;;7.20;88.87;100063.36;52365;1257;1098346;-80
2024/04/18 12:41:18;;;;;;;2.70;2.20;;;;;;;7.24;89.13;100062.39;52475;1255;1099671;-80
2024/04/18 12:44:03;;;;;;;2.50;2.00;;;;;;;7.33;89.46;100059.91;52400;1256;1100222;-81
2024/04/18 12:47:05;;;;;;;;;;;;;;;7.44;89.63;100056.83;52179;1260;1099614;-84
2024/04/18 12:50:08;;;;;;;3.50;2.60;;;;;;;7.47;88.17;100060.73;51992;1256;1099211;-84
2024/04/18 12:52:54;;;;;;;2.90;2.20;;;;;;;7.50;87.73;100056.65;52292;1257;1098383;-85
2024/04/18 12:55:40;;;;;;;3.30;2.50;;;;;;;7.52;87.89;100063.85;52392;1263;1098417;-84
2024/04/18 12:58:26;;;;;;;3.50;2.00;;;;;;;7.54;87.65;100061.41;52201;1263;1099458;-86